Time;durP1;ratioP1;P1;durP2;ratioP2;P2;SDS_P1;SDS_P2;PMS_P1;PMS_P2;Temp;Humidity;BMP_temperature;BMP_pressure;BME280_temperature;BME280_humidity;BME280_pressure;Samples;Min_cycle;Max_cycle;Signal;HPM_P1;HPM_P2
2022/04/01 00:01:40;;;;;;;11.17;3.77;;;3.70;99.90;;;;;;4143603;28;20965;-77
2022/04/01 00:03:41;;;;;;;7.00;3.23;;;3.80;99.90;;;;;;4142104;28;20458;-77
2022/04/01 00:05:43;;;;;;;7.93;3.30;;;3.80;99.90;;;;;;4134171;28;20448;-78
2022/04/01 00:07:45;;;;;;;9.33;3.10;;;3.80;99.90;;;;;;4134005;28;20452;-77
2022/04/01 00:09:49;;;;;;;10.40;3.17;;;3.70;99.90;;;;;;4134616;28;20468;-78
2022/04/01 00:11:51;;;;;;;6.53;3.20;;;4.00;99.90;;;;;;4135073;28;20495;-77
2022/04/01 00:13:55;;;;;;;6.27;3.00;;;3.80;99.90;;;;;;4135051;28;20491;-78
2022/04/01 00:15:58;;;;;;;8.37;3.20;;;3.80;99.90;;;;;;4135079;28;20863;-78
2022/04/01 00:18:01;;;;;;;9.20;3.07;;;3.80;99.90;;;;;;4134719;28;20485;-77
2022/04/01 00:20:03;;;;;;;4.63;2.40;;;3.80;99.90;;;;;;4136183;28;20495;-77
2022/04/01 00:22:05;;;;;;;11.53;3.60;;;3.80;99.90;;;;;;4135074;28;20492;-78
2022/04/01 00:24:07;;;;;;;5.40;3.20;;;3.80;99.90;;;;;;4132163;28;20475;-78
2022/04/01 00:26:10;;;;;;;7.87;3.27;;;3.70;99.90;;;;;;4135264;28;20575;-78
2022/04/01 00:28:12;;;;;;;7.40;3.37;;;3.70;99.90;;;;;;4134323;28;20463;-78
2022/04/01 00:30:14;;;;;;;7.23;3.40;;;3.70;99.90;;;;;;4138108;28;20456;-78
2022/04/01 00:32:16;;;;;;;10.43;3.53;;;3.80;99.90;;;;;;4131367;28;20496;-78
2022/04/01 00:34:18;;;;;;;9.87;3.70;;;3.80;99.90;;;;;;4128013;28;20514;-78
2022/04/01 00:36:19;;;;;;;7.20;3.33;;;3.80;99.90;;;;;;4134137;28;20468;-77
2022/04/01 00:38:21;;;;;;;8.13;3.40;;;3.70;99.90;;;;;;4134890;28;20999;-77
2022/04/01 00:40:23;;;;;;;15.07;3.50;;;3.80;99.90;;;;;;4136258;28;20980;-77
2022/04/01 00:42:27;;;;;;;6.30;3.17;;;4.30;99.90;;;;;;4143882;28;20518;-77
2022/04/01 00:44:31;;;;;;;9.20;3.47;;;3.70;99.90;;;;;;4152617;28;20461;-78
2022/04/01 00:46:32;;;;;;;15.80;3.73;;;4.00;99.90;;;;;;4144504;28;20446;-77
2022/04/01 00:48:34;;;;;;;7.90;3.60;;;3.80;99.90;;;;;;4154093;28;20517;-78
2022/04/01 00:50:36;;;;;;;9.73;3.60;;;3.90;99.90;;;;;;4135498;28;20526;-77
2022/04/01 00:52:38;;;;;;;8.50;3.57;;;3.80;99.90;;;;;;4130278;28;20506;-77
2022/04/01 00:54:40;;;;;;;10.40;3.60;;;3.70;99.90;;;;;;4136237;28;20562;-78
2022/04/01 00:56:42;;;;;;;8.17;4.00;;;3.70;99.90;;;;;;4133811;28;20463;-78
2022/04/01 00:58:45;;;;;;;11.50;4.00;;;3.70;99.90;;;;;;4133194;28;20455;-77
2022/04/01 01:00:46;;;;;;;8.30;3.73;;;3.70;99.90;;;;;;4122179;28;20476;-77
2022/04/01 01:02:48;;;;;;;11.17;4.00;;;3.70;99.90;;;;;;4131718;28;20480;-77
2022/04/01 01:04:50;;;;;;;10.93;3.77;;;3.70;99.90;;;;;;4132272;28;20556;-77
2022/04/01 01:06:58;;;;;;;8.37;4.00;;;3.70;99.90;;;;;;4137891;28;20467;-80
2022/04/01 01:09:02;;;;;;;7.67;3.63;;;3.70;99.90;;;;;;4129370;28;20472;-78
2022/04/01 01:11:03;;;;;;;10.00;3.80;;;3.70;99.90;;;;;;4136708;28;20475;-77
2022/04/01 01:13:05;;;;;;;9.07;4.03;;;3.70;99.90;;;;;;4144228;28;20462;-78
2022/04/01 01:15:10;;;;;;;8.30;3.67;;;3.70;99.90;;;;;;4141837;28;20517;-78
2022/04/01 01:17:14;;;;;;;11.57;4.47;;;3.70;99.90;;;;;;4137271;28;20474;-78
2022/04/01 01:19:17;;;;;;;10.47;4.37;;;3.70;99.90;;;;;;4143247;28;20462;-78
2022/04/01 01:21:19;;;;;;;11.07;3.70;;;3.70;99.90;;;;;;4133595;28;20464;-78
2022/04/01 01:23:27;;;;;;;8.50;3.97;;;3.70;99.90;;;;;;4128240;28;20526;-77
2022/04/01 01:25:35;;;;;;;7.47;3.53;;;3.70;99.90;;;;;;4131788;28;20467;-78
2022/04/01 01:27:37;;;;;;;10.03;4.37;;;3.60;99.90;;;;;;4130726;28;20887;-77
2022/04/01 01:29:40;;;;;;;9.07;3.57;;;3.70;99.90;;;;;;4133043;28;20468;-77
2022/04/01 01:31:43;;;;;;;9.07;3.83;;;3.70;99.90;;;;;;4135081;28;20482;-77
2022/04/01 01:33:45;;;;;;;8.30;3.47;;;3.70;99.90;;;;;;4139663;28;20455;-77
2022/04/01 01:35:47;;;;;;;7.77;3.67;;;3.70;99.90;;;;;;4131995;28;20460;-78
2022/04/01 01:37:49;;;;;;;7.40;3.30;;;3.60;99.90;;;;;;4134167;28;20459;-78
2022/04/01 01:39:51;;;;;;;11.37;3.70;;;3.60;99.90;;;;;;4134588;28;20456;-77
2022/04/01 01:41:55;;;;;;;7.90;3.60;;;3.60;99.90;;;;;;4129457;28;21051;-78
2022/04/01 01:43:57;;;;;;;8.43;3.50;;;3.60;99.90;;;;;;4136866;28;20462;-77
2022/04/01 01:45:59;;;;;;;10.63;3.70;;;3.70;99.90;;;;;;4151172;28;20466;-78
2022/04/01 01:48:01;;;;;;;13.17;3.97;;;3.70;99.90;;;;;;4146655;28;20474;-77
2022/04/01 01:54:46;;;;;;;7.87;3.47;;;3.70;99.90;;;;;;4135694;28;20454;-77
2022/04/01 01:56:47;;;;;;;7.57;3.40;;;3.70;99.90;;;;;;4144258;28;20477;-78
2022/04/01 01:58:51;;;;;;;11.00;4.00;;;3.60;99.90;;;;;;4134580;28;20448;-78
2022/04/01 02:00:52;;;;;;;8.80;3.07;;;3.60;99.90;;;;;;4140102;28;20959;-77
2022/04/01 02:02:54;;;;;;;8.10;3.47;;;3.60;99.90;;;;;;4146212;28;20540;-78
2022/04/01 02:04:56;;;;;;;9.00;4.03;;;3.60;99.90;;;;;;4135774;28;20538;-77
2022/04/01 02:06:58;;;;;;;5.90;3.40;;;4.40;99.90;;;;;;4122805;28;20472;-77
2022/04/01 02:09:00;;;;;;;7.17;3.07;;;3.60;99.90;;;;;;4136386;28;20471;-78
2022/04/01 02:11:02;;;;;;;8.07;3.17;;;3.60;99.90;;;;;;4139350;28;20964;-77
2022/04/01 02:13:05;;;;;;;6.17;3.43;;;3.70;99.90;;;;;;4138161;28;20495;-78
2022/04/01 02:15:10;;;;;;;11.70;3.60;;;3.60;99.90;;;;;;4137795;28;20452;-77
2022/04/01 02:17:12;;;;;;;15.17;3.67;;;3.60;99.90;;;;;;4125543;28;20483;-77
2022/04/01 02:19:20;;;;;;;9.23;2.93;;;3.60;99.90;;;;;;4139775;28;20971;-78
2022/04/01 02:21:22;;;;;;;9.73;4.50;;;3.60;99.90;;;;;;4151109;28;20485;-78
2022/04/01 02:23:24;;;;;;;6.63;2.87;;;3.60;99.00;;;;;;4173811;23;20951;-82
2022/04/01 02:25:27;;;;;;;11.90;3.33;;;3.60;97.90;;;;;;4147190;28;20462;-82
2022/04/01 02:27:29;;;;;;;7.03;3.33;;;3.60;97.60;;;;;;4151358;28;21074;-83
2022/04/01 02:29:31;;;;;;;10.17;3.10;;;3.50;99.00;;;;;;4151279;28;20470;-83
2022/04/01 02:31:34;;;;;;;10.10;3.30;;;3.60;98.00;;;;;;4151579;28;20982;-83
2022/04/01 02:33:36;;;;;;;7.23;3.03;;;3.50;94.00;;;;;;4148297;28;20541;-83
2022/04/01 02:35:38;;;;;;;11.03;3.40;;;3.50;93.10;;;;;;4151199;28;20458;-82
2022/04/01 02:37:40;;;;;;;7.80;3.43;;;3.50;94.30;;;;;;4151928;28;20477;-83
2022/04/01 02:39:42;;;;;;;10.27;3.43;;;3.50;93.30;;;;;;4152374;28;20487;-82
2022/04/01 02:41:44;;;;;;;11.03;3.17;;;3.50;90.50;;;;;;4143968;28;20800;-83
2022/04/01 02:43:46;;;;;;;8.10;3.17;;;3.50;91.50;;;;;;4154803;28;20522;-83
2022/04/01 02:45:49;;;;;;;6.60;3.23;;;3.50;91.70;;;;;;4152418;28;20815;-82
2022/04/01 02:47:52;;;;;;;7.50;2.87;;;3.50;92.70;;;;;;4152704;28;20443;-83
2022/04/01 02:49:54;;;;;;;12.60;3.10;;;3.50;91.90;;;;;;4147921;28;20610;-82
2022/04/01 02:51:56;;;;;;;7.60;2.97;;;3.60;88.60;;;;;;4153150;28;20486;-83
2022/04/01 02:53:58;;;;;;;6.17;2.80;;;3.50;90.70;;;;;;4153454;28;20517;-82
2022/04/01 02:56:03;;;;;;;6.97;2.97;;;3.40;91.00;;;;;;4153431;28;20484;-82
2022/04/01 02:58:05;;;;;;;5.90;2.93;;;3.40;91.70;;;;;;4146333;28;20467;-82
2022/04/01 03:00:09;;;;;;;6.93;2.80;;;3.50;91.20;;;;;;4146482;28;20467;-82
2022/04/01 03:02:11;;;;;;;6.00;2.83;;;3.40;91.10;;;;;;4152570;28;20541;-82
2022/04/01 03:04:14;;;;;;;7.80;3.37;;;3.40;85.60;;;;;;4159535;28;20455;-82
2022/04/01 03:06:16;;;;;;;9.23;3.20;;;3.40;87.20;;;;;;4151725;28;20465;-82
2022/04/01 03:08:18;;;;;;;8.80;3.37;;;3.40;87.80;;;;;;4156799;28;20488;-82
2022/04/01 03:10:23;;;;;;;7.27;3.20;;;3.40;85.00;;;;;;4161061;28;20459;-82
2022/04/01 03:12:30;;;;;;;8.83;3.13;;;3.40;82.80;;;;;;4156044;28;20914;-82
2022/04/01 03:14:32;;;;;;;9.00;3.20;;;3.40;85.00;;;;;;4149671;28;20490;-82
2022/04/01 03:16:34;;;;;;;6.60;2.83;;;3.30;84.70;;;;;;4148915;28;20453;-81
2022/04/01 03:18:40;;;;;;;11.33;3.37;;;3.30;84.60;;;;;;4155363;28;20554;-81
2022/04/01 03:20:45;;;;;;;5.57;2.67;;;3.80;87.50;;;;;;4148423;28;20493;-82
2022/04/01 03:22:46;;;;;;;10.47;2.80;;;3.30;86.30;;;;;;4148090;28;20911;-81
2022/04/01 03:24:48;;;;;;;7.33;2.93;;;3.30;86.30;;;;;;4149218;28;20480;-82
2022/04/01 03:26:50;;;;;;;7.20;2.80;;;3.30;87.70;;;;;;4147128;28;20473;-82
2022/04/01 03:28:52;;;;;;;7.03;2.50;;;3.30;82.70;;;;;;4149367;28;20474;-82
2022/04/01 03:30:53;;;;;;;6.57;3.10;;;3.30;82.30;;;;;;4149870;28;20458;-82
2022/04/01 03:32:56;;;;;;;6.47;2.83;;;3.30;82.10;;;;;;4143677;28;20498;-83
2022/04/01 03:34:58;;;;;;;5.80;3.03;;;3.30;83.50;;;;;;4149656;28;20879;-82
2022/04/01 03:37:02;;;;;;;5.63;2.53;;;3.30;81.20;;;;;;4150080;28;20459;-83
2022/04/01 03:39:05;;;;;;;4.97;2.57;;;3.30;78.90;;;;;;4147209;28;20490;-82
2022/04/01 03:41:09;;;;;;;5.30;2.93;;;3.30;78.60;;;;;;4149046;28;20566;-82
2022/04/01 03:43:12;;;;;;;6.57;3.03;;;3.30;74.30;;;;;;4149084;28;20923;-82
2022/04/01 03:45:17;;;;;;;5.93;2.70;;;3.30;75.00;;;;;;4147380;28;20455;-82
2022/04/01 03:47:24;;;;;;;8.57;2.90;;;3.30;75.00;;;;;;4147892;28;20473;-82
2022/04/01 03:49:26;;;;;;;5.83;2.80;;;3.20;73.60;;;;;;4149193;28;20956;-83
2022/04/01 03:51:31;;;;;;;6.50;2.80;;;3.30;72.60;;;;;;4146423;28;20959;-82
2022/04/01 03:53:35;;;;;;;6.80;3.20;;;3.20;76.00;;;;;;4145120;28;20497;-82
2022/04/01 03:55:42;;;;;;;6.43;2.70;;;3.20;71.90;;;;;;4156583;28;20482;-82
2022/04/01 03:57:45;;;;;;;6.97;2.70;;;3.20;72.00;;;;;;4147062;28;20557;-82
2022/04/01 03:59:51;;;;;;;9.33;3.57;;;3.20;74.00;;;;;;4149723;28;20466;-82
2022/04/01 04:01:53;;;;;;;8.30;3.23;;;3.20;74.30;;;;;;4148868;28;20564;-82
2022/04/01 04:03:57;;;;;;;6.43;2.67;;;3.20;74.70;;;;;;4147796;28;20459;-82
2022/04/01 04:05:59;;;;;;;6.30;2.97;;;3.20;75.30;;;;;;4148918;28;20458;-83
2022/04/01 04:08:02;;;;;;;10.37;3.00;;;3.10;73.50;;;;;;4153099;28;20451;-82
2022/04/01 04:10:08;;;;;;;5.77;2.73;;;3.20;76.70;;;;;;4147742;28;20737;-82
2022/04/01 04:12:13;;;;;;;8.17;3.17;;;3.20;79.60;;;;;;4151060;28;20834;-82
2022/04/01 04:14:18;;;;;;;7.53;2.70;;;3.20;75.70;;;;;;4154384;28;20477;-83
2022/04/01 04:16:29;;;;;;;6.73;2.57;;;3.20;76.50;;;;;;4148156;28;20457;-82
2022/04/01 04:18:35;;;;;;;5.13;2.50;;;3.20;73.20;;;;;;4150512;28;20481;-83
2022/04/01 04:20:41;;;;;;;6.63;2.80;;;3.20;74.10;;;;;;4153111;28;20462;-82
2022/04/01 04:22:50;;;;;;;13.57;3.13;;;3.20;73.80;;;;;;4154213;28;20868;-83
2022/04/01 04:24:55;;;;;;;8.03;3.20;;;3.20;73.10;;;;;;4145400;28;20451;-82
2022/04/01 04:27:10;;;;;;;7.33;2.70;;;3.20;74.20;;;;;;4145013;28;20451;-82
2022/04/01 04:29:14;;;;;;;6.27;2.60;;;3.20;73.70;;;;;;4133614;28;20842;-81
2022/04/01 04:31:18;;;;;;;7.83;2.97;;;3.10;74.20;;;;;;4144526;28;20470;-82
2022/04/01 04:33:22;;;;;;;7.47;2.80;;;3.10;75.90;;;;;;4143681;28;21081;-82
2022/04/01 04:35:28;;;;;;;5.50;2.53;;;3.10;77.40;;;;;;4147863;28;20454;-82
2022/04/01 04:37:31;;;;;;;7.50;2.83;;;3.10;75.60;;;;;;4150897;28;20465;-82
2022/04/01 04:39:34;;;;;;;4.93;2.23;;;3.10;72.40;;;;;;4145699;28;20548;-81
2022/04/01 04:41:36;;;;;;;8.57;3.57;;;3.10;72.80;;;;;;4148236;28;20478;-82
2022/04/01 04:43:42;;;;;;;10.57;4.73;;;3.10;73.80;;;;;;4143944;28;20490;-82
2022/04/01 04:45:48;;;;;;;5.27;2.67;;;3.10;75.00;;;;;;4145922;28;20973;-83
2022/04/01 04:47:51;;;;;;;9.97;3.67;;;3.10;76.30;;;;;;4141929;28;20547;-82
2022/04/01 04:49:56;;;;;;;7.20;2.97;;;3.10;75.10;;;;;;4147865;28;20458;-83
2022/04/01 04:51:59;;;;;;;7.80;3.30;;;3.10;75.40;;;;;;4149261;28;20526;-82
2022/04/01 04:54:03;;;;;;;9.50;3.00;;;3.20;75.40;;;;;;4141896;28;20486;-82
2022/04/01 04:56:07;;;;;;;6.87;2.70;;;3.10;76.50;;;;;;4148152;28;20974;-82
2022/04/01 04:58:10;;;;;;;5.77;2.83;;;3.00;72.30;;;;;;4149144;28;21038;-81
2022/04/01 05:00:19;;;;;;;7.77;2.83;;;3.00;71.70;;;;;;4150849;28;20497;-83
2022/04/01 05:02:29;;;;;;;10.30;2.90;;;3.00;68.70;;;;;;4149754;28;20569;-83
2022/04/01 05:04:54;;;;;;;5.47;2.60;;;3.00;69.90;;;;;;4149234;28;20492;-82
2022/04/01 05:07:10;;;;;;;9.27;3.37;;;3.00;70.50;;;;;;4142376;28;20466;-82
2022/04/01 05:09:18;;;;;;;6.90;2.43;;;3.00;75.90;;;;;;4148481;28;20932;-82
2022/04/01 05:11:29;;;;;;;6.73;2.70;;;3.00;75.10;;;;;;4150171;28;20458;-82
2022/04/01 05:13:55;;;;;;;5.40;2.80;;;3.00;73.60;;;;;;4146036;28;20534;-82
2022/04/01 05:16:05;;;;;;;12.53;3.47;;;3.00;74.30;;;;;;4152330;28;20470;-82
2022/04/01 05:18:12;;;;;;;7.93;2.77;;;3.00;72.70;;;;;;4152382;28;20458;-83
2022/04/01 05:20:16;;;;;;;8.93;3.07;;;3.00;74.30;;;;;;4151165;28;20541;-83
2022/04/01 05:22:23;;;;;;;7.07;2.80;;;3.00;71.30;;;;;;4150503;28;20499;-83
2022/04/01 05:24:29;;;;;;;7.80;2.73;;;3.00;72.80;;;;;;4146380;28;20481;-83
2022/04/01 05:26:40;;;;;;;8.40;3.30;;;3.00;71.90;;;;;;4147699;28;20451;-82
2022/04/01 05:28:48;;;;;;;6.00;2.43;;;3.00;71.90;;;;;;4147178;28;20466;-82
2022/04/01 05:30:57;;;;;;;5.30;2.53;;;3.00;69.70;;;;;;4148910;28;20451;-83
2022/04/01 05:33:06;;;;;;;7.27;2.93;;;3.00;67.90;;;;;;4147034;28;20498;-83
2022/04/01 05:35:09;;;;;;;5.20;2.83;;;2.90;68.70;;;;;;4147295;28;20458;-82
2022/04/01 05:37:13;;;;;;;7.43;3.10;;;2.90;68.00;;;;;;4150635;28;20566;-82
2022/04/01 05:39:16;;;;;;;10.20;3.30;;;2.90;69.30;;;;;;4149884;28;20468;-83
2022/04/01 05:41:20;;;;;;;7.90;2.80;;;2.90;69.30;;;;;;4147992;28;20570;-82
2022/04/01 05:43:24;;;;;;;9.97;3.57;;;3.00;68.80;;;;;;4149560;28;20482;-82
2022/04/01 05:45:29;;;;;;;9.23;2.67;;;3.00;68.00;;;;;;4150528;28;20818;-79
2022/04/01 05:47:31;;;;;;;6.50;3.40;;;3.00;69.90;;;;;;4149958;28;20549;-79
2022/04/01 05:49:38;;;;;;;5.70;2.60;;;3.00;69.40;;;;;;4146060;28;20509;-80
2022/04/01 05:51:41;;;;;;;10.13;3.03;;;3.00;69.10;;;;;;4146407;28;20481;-80
2022/04/01 05:53:46;;;;;;;9.30;2.57;;;3.00;69.00;;;;;;4148028;28;20508;-80
2022/04/01 05:55:51;;;;;;;7.97;2.87;;;3.00;66.80;;;;;;4149924;28;20458;-79
2022/04/01 05:57:52;;;;;;;6.63;3.27;;;3.00;67.10;;;;;;4146938;28;20833;-79
2022/04/01 05:59:54;;;;;;;6.10;2.63;;;3.00;66.40;;;;;;4145592;28;21049;-80
2022/04/01 06:02:17;;;;;;;5.80;2.80;;;3.30;66.60;;;;;;4146407;28;21000;-80
2022/04/01 06:04:47;;;;;;;6.70;2.87;;;3.00;66.20;;;;;;4149398;28;20962;-79
2022/04/01 06:06:50;;;;;;;4.93;2.70;;;3.00;66.80;;;;;;4146398;28;20523;-80
2022/04/01 06:08:58;;;;;;;6.70;3.33;;;3.00;67.70;;;;;;4146619;28;20518;-82
2022/04/01 06:11:10;;;;;;;8.37;3.40;;;3.00;65.00;;;;;;4145524;28;20494;-82
2022/04/01 06:13:23;;;;;;;6.37;2.80;;;3.00;66.30;;;;;;4151078;28;20567;-82
2022/04/01 06:15:31;;;;;;;8.30;3.63;;;3.00;65.90;;;;;;4150324;28;20466;-81
2022/04/01 06:17:42;;;;;;;9.90;3.33;;;3.00;65.00;;;;;;4144779;28;20973;-82
2022/04/01 06:19:47;;;;;;;9.77;4.00;;;3.00;66.00;;;;;;4150149;28;20472;-82
2022/04/01 06:21:54;;;;;;;6.77;3.00;;;3.00;65.20;;;;;;4149871;28;20500;-82
2022/04/01 06:24:10;;;;;;;6.40;3.07;;;3.10;64.50;;;;;;4150446;28;20464;-82
2022/04/01 06:26:14;;;;;;;8.70;3.63;;;3.00;65.00;;;;;;4142576;28;20503;-82
2022/04/01 06:28:19;;;;;;;8.87;3.33;;;3.10;66.20;;;;;;4154910;28;20516;-82
2022/04/01 06:30:21;;;;;;;9.07;3.17;;;3.10;65.90;;;;;;4140507;28;20479;-82
2022/04/01 06:32:29;;;;;;;11.00;3.00;;;3.10;66.00;;;;;;4146035;28;20502;-83
2022/04/01 06:34:41;;;;;;;6.73;3.30;;;3.30;65.80;;;;;;4145512;28;20500;-82
2022/04/01 06:36:50;;;;;;;7.30;3.30;;;3.10;64.80;;;;;;4142748;28;20466;-82
2022/04/01 06:38:56;;;;;;;6.13;3.20;;;3.10;65.30;;;;;;4141134;28;20458;-81
2022/04/01 06:41:03;;;;;;;7.83;3.07;;;3.10;64.80;;;;;;4137417;28;20474;-80
2022/04/01 06:43:06;;;;;;;7.60;3.33;;;3.10;65.40;;;;;;4131029;28;20497;-79
2022/04/01 06:45:10;;;;;;;9.60;3.00;;;3.10;65.50;;;;;;4146164;28;20520;-80
2022/04/01 06:47:12;;;;;;;7.23;3.27;;;3.10;65.30;;;;;;4142208;28;20889;-80
2022/04/01 06:49:14;;;;;;;5.53;2.37;;;3.00;65.60;;;;;;4143898;28;20442;-80
2022/04/01 06:51:17;;;;;;;5.40;2.87;;;3.10;66.90;;;;;;4144082;28;20531;-80
2022/04/01 06:53:21;;;;;;;6.33;2.57;;;3.00;66.00;;;;;;4147080;28;20498;-79
2022/04/01 06:55:23;;;;;;;8.20;2.83;;;3.10;65.60;;;;;;4143483;28;20557;-78
2022/04/01 06:57:25;;;;;;;5.90;3.10;;;3.10;65.40;;;;;;4136511;28;20471;-79
2022/04/01 06:59:27;;;;;;;6.80;2.97;;;3.00;62.90;;;;;;4142826;28;20483;-79
2022/04/01 07:01:29;;;;;;;6.73;2.70;;;3.00;63.10;;;;;;4144617;28;20815;-79
2022/04/01 07:03:31;;;;;;;5.97;2.80;;;3.00;63.60;;;;;;4142852;28;20849;-79
2022/04/01 07:05:34;;;;;;;7.47;2.77;;;3.00;63.10;;;;;;4147960;28;20477;-79
2022/04/01 07:07:37;;;;;;;9.07;3.10;;;3.00;62.60;;;;;;4135222;28;20467;-79
2022/04/01 07:09:40;;;;;;;6.83;3.03;;;3.00;63.20;;;;;;4142142;28;20458;-80
2022/04/01 07:11:42;;;;;;;6.00;3.30;;;3.10;62.40;;;;;;4150151;28;20942;-82
2022/04/01 07:13:44;;;;;;;5.27;2.77;;;3.00;64.30;;;;;;4151120;28;20493;-79
2022/04/01 07:15:47;;;;;;;5.17;2.83;;;3.10;64.60;;;;;;4145126;28;20467;-80
2022/04/01 07:17:49;;;;;;;6.10;3.63;;;3.00;64.60;;;;;;4143612;28;20473;-80
2022/04/01 07:19:51;;;;;;;6.03;2.93;;;3.10;63.80;;;;;;4147564;28;20466;-80
2022/04/01 07:21:53;;;;;;;10.43;3.33;;;3.60;64.10;;;;;;4157973;28;20477;-80
2022/04/01 07:23:58;;;;;;;6.00;2.90;;;3.10;63.90;;;;;;4146419;28;21043;-79
2022/04/01 07:26:01;;;;;;;9.30;2.90;;;3.10;63.00;;;;;;4136072;28;20467;-79
2022/04/01 07:28:04;;;;;;;7.93;2.80;;;3.10;63.30;;;;;;4135671;28;20556;-79
2022/04/01 07:30:09;;;;;;;7.70;3.03;;;3.10;62.60;;;;;;4140445;28;20474;-80
2022/04/01 07:34:38;;;;;;;5.83;3.00;;;3.10;60.30;;;;;;4137946;28;21138;-80
2022/04/01 07:36:40;;;;;;;5.63;2.97;;;3.20;60.80;;;;;;4141502;28;21012;-79
2022/04/01 07:38:41;;;;;;;6.30;2.87;;;3.20;60.80;;;;;;4129026;28;20474;-80
2022/04/01 07:40:43;;;;;;;6.50;2.93;;;3.20;60.20;;;;;;4140708;28;20605;-80
2022/04/01 07:42:48;;;;;;;7.90;3.00;;;3.20;59.30;;;;;;4144676;28;20489;-79
2022/04/01 07:44:51;;;;;;;12.53;3.50;;;3.20;58.90;;;;;;4144637;28;20889;-80
2022/04/01 07:46:53;;;;;;;6.43;3.10;;;3.20;58.90;;;;;;4142770;28;20548;-79
2022/04/01 07:48:55;;;;;;;6.00;2.80;;;3.20;60.20;;;;;;4134560;28;20905;-80
2022/04/01 07:50:57;;;;;;;7.63;3.47;;;3.20;61.90;;;;;;4144115;28;20881;-79
2022/04/01 07:52:58;;;;;;;7.40;3.53;;;3.20;63.90;;;;;;4143963;28;20487;-80
2022/04/01 07:55:01;;;;;;;5.93;3.10;;;3.20;63.30;;;;;;4143142;28;20491;-80
2022/04/01 07:57:03;;;;;;;8.80;3.60;;;3.30;64.10;;;;;;4141163;28;20920;-79
2022/04/01 07:59:06;;;;;;;8.10;3.73;;;3.30;65.00;;;;;;4143991;28;20469;-80
2022/04/01 08:01:08;;;;;;;5.93;3.40;;;3.30;66.50;;;;;;4140775;28;20486;-79
2022/04/01 08:03:10;;;;;;;8.17;3.40;;;3.30;65.40;;;;;;4147653;28;20541;-80
2022/04/01 08:05:14;;;;;;;5.73;3.10;;;3.40;63.80;;;;;;4146152;28;20474;-80
2022/04/01 08:07:16;;;;;;;6.83;3.40;;;3.40;63.00;;;;;;4152887;28;20478;-81
2022/04/01 08:09:18;;;;;;;7.23;2.97;;;3.40;62.70;;;;;;4150557;28;20467;-81
2022/04/01 08:11:20;;;;;;;7.93;3.50;;;3.40;61.30;;;;;;4147696;28;20516;-80
2022/04/01 08:13:22;;;;;;;8.20;3.73;;;3.50;61.00;;;;;;4148317;28;20487;-79
2022/04/01 08:15:25;;;;;;;9.50;3.50;;;3.50;60.20;;;;;;4145241;28;21202;-82
2022/04/01 08:17:27;;;;;;;7.67;3.60;;;3.50;60.10;;;;;;4150125;28;20480;-80
2022/04/01 08:19:28;;;;;;;6.67;3.60;;;3.60;60.00;;;;;;4147783;28;20475;-80
2022/04/01 08:21:31;;;;;;;9.20;3.63;;;3.50;59.70;;;;;;4142602;28;20508;-80
2022/04/01 08:23:35;;;;;;;7.03;3.20;;;3.60;60.80;;;;;;4138352;28;20502;-80
2022/04/01 08:25:36;;;;;;;6.90;3.77;;;3.60;60.90;;;;;;4145524;28;20491;-79
2022/04/01 08:27:38;;;;;;;9.30;4.13;;;3.60;62.10;;;;;;4139902;28;20745;-79
2022/04/01 08:29:40;;;;;;;7.50;4.30;;;3.60;69.30;;;;;;4137108;28;20458;-80
2022/04/01 08:31:43;;;;;;;7.43;4.17;;;3.60;75.90;;;;;;4127243;28;20466;-79
2022/04/01 08:33:46;;;;;;;9.27;4.20;;;3.50;76.50;;;;;;4138577;28;20477;-79
2022/04/01 08:35:48;;;;;;;15.57;3.90;;;3.50;79.80;;;;;;4144877;28;20904;-79
2022/04/01 08:37:50;;;;;;;11.50;3.93;;;3.50;84.40;;;;;;4155465;28;20454;-79
2022/04/01 08:39:53;;;;;;;8.20;3.80;;;3.50;90.50;;;;;;4143540;28;20776;-79
2022/04/01 08:41:55;;;;;;;8.00;3.57;;;3.50;92.20;;;;;;4143473;28;20510;-79
2022/04/01 08:43:56;;;;;;;10.27;4.30;;;3.50;94.30;;;;;;4143563;28;21026;-79
2022/04/01 08:45:59;;;;;;;6.43;3.53;;;3.40;94.20;;;;;;4143571;28;20458;-79
2022/04/01 08:48:04;;;;;;;8.93;3.70;;;3.50;92.70;;;;;;4143676;28;20462;-81
2022/04/01 08:50:08;;;;;;;9.07;3.80;;;3.50;97.00;;;;;;4143457;28;20466;-79
2022/04/01 08:52:10;;;;;;;7.20;4.07;;;3.40;99.90;;;;;;4149640;28;20519;-80
2022/04/01 08:54:12;;;;;;;9.70;4.13;;;3.40;99.90;;;;;;4143293;28;20503;-81
2022/04/01 08:56:15;;;;;;;9.30;3.80;;;3.40;99.90;;;;;;4149770;28;20470;-79
2022/04/01 08:58:17;;;;;;;10.23;4.17;;;3.40;99.90;;;;;;4145748;28;21043;-79
2022/04/01 09:00:36;;;;;;;9.57;4.00;;;3.30;99.90;;;;;;4142959;28;20995;-79
2022/04/01 09:02:38;;;;;;;6.60;3.83;;;3.30;99.90;;;;;;4147693;28;20524;-79
2022/04/01 09:04:41;;;;;;;9.77;3.77;;;3.30;99.90;;;;;;4147802;28;20465;-79
2022/04/01 09:06:43;;;;;;;8.63;3.80;;;3.30;99.90;;;;;;4133783;28;20492;-79
2022/04/01 09:08:45;;;;;;;9.30;3.97;;;3.30;99.90;;;;;;4143795;28;20527;-79
2022/04/01 09:10:57;;;;;;;8.37;4.23;;;3.30;99.90;;;;;;4144503;28;20520;-79
2022/04/01 09:12:59;;;;;;;12.17;4.50;;;3.40;99.90;;;;;;4143457;28;20482;-79
2022/04/01 09:15:00;;;;;;;9.27;3.60;;;3.40;99.90;;;;;;4143155;28;20548;-80
2022/04/01 09:17:03;;;;;;;8.73;3.60;;;3.40;99.90;;;;;;4141572;28;20476;-80
2022/04/01 09:19:06;;;;;;;7.27;3.37;;;3.40;99.90;;;;;;4143110;28;20457;-80
2022/04/01 09:21:11;;;;;;;9.23;4.00;;;3.40;99.90;;;;;;4144016;28;20466;-79
2022/04/01 09:23:13;;;;;;;7.03;3.63;;;3.50;97.00;;;;;;4155958;28;20497;-80
2022/04/01 09:25:16;;;;;;;7.27;3.53;;;3.50;94.60;;;;;;4144089;28;21283;-79
2022/04/01 09:27:18;;;;;;;7.87;3.67;;;3.50;92.50;;;;;;4151673;28;20460;-80
2022/04/01 09:29:20;;;;;;;5.77;3.37;;;3.60;92.00;;;;;;4151675;28;20451;-80
2022/04/01 09:31:24;;;;;;;5.80;3.57;;;3.60;90.90;;;;;;4141696;28;21045;-80
2022/04/01 09:33:33;;;;;;;8.67;3.83;;;3.70;88.40;;;;;;4140266;28;20481;-79
2022/04/01 09:35:34;;;;;;;7.33;3.90;;;3.80;91.10;;;;;;4139646;28;20486;-80
2022/04/01 09:37:43;;;;;;;6.63;3.70;;;3.80;92.10;;;;;;4140807;28;20482;-81
2022/04/01 09:39:45;;;;;;;8.27;3.87;;;3.80;93.50;;;;;;4143474;28;20463;-80
2022/04/01 09:41:48;;;;;;;7.40;3.70;;;3.80;94.10;;;;;;4137491;28;20541;-80
2022/04/01 09:43:50;;;;;;;9.53;3.60;;;3.80;95.90;;;;;;4136896;28;20490;-80
2022/04/01 09:45:52;;;;;;;5.87;3.37;;;3.80;98.20;;;;;;4141700;28;20462;-79
2022/04/01 09:48:01;;;;;;;7.80;3.20;;;3.80;99.90;;;;;;4141650;28;20482;-79
2022/04/01 09:50:09;;;;;;;7.90;3.27;;;3.80;99.90;;;;;;4142474;28;20950;-80
2022/04/01 09:52:13;;;;;;;7.07;3.20;;;3.70;99.90;;;;;;4142185;28;20492;-80
2022/04/01 09:54:16;;;;;;;6.97;3.50;;;3.50;99.90;;;;;;4142889;28;20478;-79
2022/04/01 09:56:18;;;;;;;7.70;3.40;;;3.70;99.90;;;;;;4141716;28;20541;-79
2022/04/01 09:58:22;;;;;;;6.00;3.23;;;3.70;99.90;;;;;;4142539;28;20462;-79
2022/04/01 10:00:24;;;;;;;5.97;3.17;;;3.90;99.90;;;;;;4142790;28;20471;-79
2022/04/01 10:02:29;;;;;;;6.50;3.90;;;3.70;99.90;;;;;;4133063;28;20864;-79
2022/04/01 10:04:31;;;;;;;7.90;3.23;;;3.70;99.90;;;;;;4146383;28;20474;-82
2022/04/01 10:06:34;;;;;;;7.53;3.30;;;4.20;99.90;;;;;;4143193;28;20534;-82
2022/04/01 10:08:36;;;;;;;6.77;3.20;;;3.60;99.90;;;;;;4148955;28;20489;-82
2022/04/01 10:10:40;;;;;;;12.87;3.67;;;3.70;99.90;;;;;;4137954;28;20533;-83
2022/04/01 10:12:47;;;;;;;7.67;3.40;;;3.60;99.90;;;;;;4145443;28;20500;-82
2022/04/01 10:14:54;;;;;;;6.13;3.30;;;3.60;99.90;;;;;;4147799;28;20490;-82
2022/04/01 10:16:59;;;;;;;6.93;3.37;;;3.60;99.90;;;;;;4145994;28;20527;-82
2022/04/01 10:19:07;;;;;;;6.47;3.17;;;3.60;99.90;;;;;;4141510;28;20535;-83
2022/04/01 10:21:10;;;;;;;6.20;3.17;;;3.60;99.90;;;;;;4148404;28;20807;-83
2022/04/01 10:23:14;;;;;;;8.53;3.27;;;3.70;99.90;;;;;;4147085;28;20572;-80
2022/04/01 10:25:21;;;;;;;8.23;3.80;;;3.60;99.90;;;;;;4145349;28;20459;-80
2022/04/01 10:27:35;;;;;;;5.70;3.13;;;3.70;99.90;;;;;;4149025;28;20447;-80
2022/04/01 10:29:37;;;;;;;6.10;3.53;;;3.90;99.90;;;;;;4147797;28;20454;-82
2022/04/01 10:31:41;;;;;;;6.37;3.43;;;3.80;99.90;;;;;;4140219;28;20542;-81
2022/04/01 10:33:43;;;;;;;5.10;3.00;;;3.80;99.90;;;;;;4148583;28;20507;-82
2022/04/01 10:35:45;;;;;;;7.40;3.37;;;4.60;99.90;;;;;;4147350;28;20485;-81
2022/04/01 10:37:47;;;;;;;6.67;3.10;;;4.10;99.90;;;;;;4147272;28;20553;-82
2022/04/01 10:39:51;;;;;;;8.50;3.57;;;3.90;99.90;;;;;;4147773;28;20976;-81
2022/04/01 10:42:11;;;;;;;5.60;2.90;;;4.00;99.90;;;;;;4154321;28;20983;-80
2022/04/01 10:44:14;;;;;;;10.10;3.30;;;4.00;99.90;;;;;;4141319;28;20459;-81
2022/04/01 10:46:17;;;;;;;5.03;3.07;;;4.20;99.90;;;;;;4147808;28;20466;-80
2022/04/01 10:53:32;;;;;;;5.27;2.90;;;4.30;99.90;;;;;;4141577;28;20492;-81
2022/04/01 10:55:34;;;;;;;5.47;2.93;;;4.60;99.90;;;;;;4146573;28;20501;-81
2022/04/01 10:57:41;;;;;;;7.50;3.30;;;4.50;99.90;;;;;;4143175;28;20474;-82
2022/04/01 10:59:46;;;;;;;8.23;3.27;;;4.50;99.90;;;;;;4140715;28;20486;-81
2022/04/01 11:02:04;;;;;;;7.30;3.20;;;4.60;99.90;;;;;;4144414;28;21050;-81
2022/04/01 11:04:28;;;;;;;5.83;3.23;;;4.60;99.90;;;;;;4144016;28;20458;-82
2022/04/01 11:06:30;;;;;;;7.83;3.40;;;4.70;99.90;;;;;;4139620;28;20469;-81